Time;durP1;ratioP1;P1;durP2;ratioP2;P2;SDS_P1;SDS_P2;PMS_P1;PMS_P2;Temp;Humidity;BMP_temperature;BMP_pressure;BME280_temperature;BME280_humidity;BME280_pressure;Samples;Min_cycle;Max_cycle;Signal;HPM_P1;HPM_P2
2022/12/07 00:01:29;;;;;;;14.02;9.20;;;;;;;4.85;100.00;101737.19;5017367;28;20429;-68
2022/12/07 00:04:03;;;;;;;12.57;8.82;;;;;;;4.88;100.00;101736.16;5017084;28;20995;-68
2022/12/07 00:06:35;;;;;;;15.52;8.63;;;;;;;4.90;100.00;101735.19;5010886;28;20510;-69
2022/12/07 00:09:03;;;;;;;14.15;9.52;;;;;;;4.86;100.00;101732.81;5001306;28;20413;-68
2022/12/07 00:11:29;;;;;;;12.85;8.50;;;;;;;4.83;100.00;101733.00;5015732;28;20516;-68
2022/12/07 00:13:58;;;;;;;10.73;8.35;;;;;;;4.87;100.00;101730.13;5023230;28;20097;-67
2022/12/07 00:16:28;;;;;;;11.18;8.35;;;;;;;4.86;100.00;101736.28;5012050;28;20069;-70
2022/12/07 00:18:55;;;;;;;13.88;7.80;;;;;;;4.78;100.00;101735.84;5012137;28;20493;-70
2022/12/07 00:21:24;;;;;;;15.15;8.93;;;;;;;4.77;100.00;101728.16;5018201;28;20389;-68
2022/12/07 00:23:52;;;;;;;13.98;8.45;;;;;;;4.72;100.00;101726.66;5020141;28;20528;-67
2022/12/07 00:26:22;;;;;;;13.23;8.88;;;;;;;4.72;100.00;101731.00;5010470;28;20092;-67
2022/12/07 00:28:50;;;;;;;13.90;8.88;;;;;;;4.67;100.00;101728.66;5018012;28;20472;-67
2022/12/07 00:31:20;;;;;;;13.48;8.73;;;;;;;4.66;100.00;101736.53;4996181;28;20425;-67
2022/12/07 00:33:48;;;;;;;15.35;8.80;;;;;;;4.57;100.00;101732.72;5018576;28;20168;-67
2022/12/07 00:36:17;;;;;;;12.82;9.02;;;;;;;4.53;100.00;101726.84;5013400;28;20501;-67
2022/12/07 00:38:51;;;;;;;13.55;8.55;;;;;;;4.48;100.00;101722.81;5024446;28;20060;-67
2022/12/07 00:41:20;;;;;;;17.73;8.70;;;;;;;4.44;100.00;101716.94;5013300;28;20053;-67
2022/12/07 00:43:47;;;;;;;;;;;;;;;4.44;100.00;101716.13;5019302;28;20049;-68
2022/12/07 00:46:14;;;;;;;13.63;8.48;;;;;;;4.38;100.00;101717.28;5011665;28;19968;-68
2022/12/07 00:48:41;;;;;;;13.05;8.07;;;;;;;4.38;100.00;101712.09;5022631;28;20049;-68
2022/12/07 00:51:10;;;;;;;12.88;8.38;;;;;;;4.39;100.00;101710.31;5016352;28;20069;-67
2022/12/07 00:53:37;;;;;;;14.23;8.50;;;;;;;4.36;100.00;101704.38;5015196;28;20045;-68
2022/12/07 00:56:11;;;;;;;12.77;8.32;;;;;;;4.33;100.00;101703.72;5026158;28;20060;-67
2022/12/07 00:58:37;;;;;;;12.15;8.13;;;;;;;4.32;100.00;101709.84;5013585;28;20057;-69
2022/12/07 01:01:06;;;;;;;11.32;8.40;;;;;;;4.34;100.00;101702.81;5016273;28;20556;-68
2022/12/07 01:03:33;;;;;;;16.15;8.52;;;;;;;4.29;100.00;101707.41;5014228;28;20049;-67
2022/12/07 01:05:59;;;;;;;14.07;9.10;;;;;;;4.21;100.00;101705.22;5022867;28;20379;-68
2022/12/07 01:08:28;;;;;;;13.68;9.23;;;;;;;4.20;100.00;101705.31;5018060;28;20064;-67
2022/12/07 01:11:04;;;;;;;15.10;9.15;;;;;;;4.15;100.00;101703.78;5009366;28;20136;-69
2022/12/07 01:13:32;;;;;;;13.00;8.43;;;;;;;4.09;100.00;101708.47;5019422;28;20249;-69
2022/12/07 01:16:00;;;;;;;14.15;9.25;;;;;;;4.05;100.00;101705.22;5012162;28;20417;-67
2022/12/07 01:18:27;;;;;;;14.30;8.90;;;;;;;4.01;100.00;101702.88;5023197;28;20060;-67
2022/12/07 01:21:03;;;;;;;13.82;9.10;;;;;;;3.97;100.00;101712.56;4989328;28;20546;-67
2022/12/07 01:23:30;;;;;;;13.38;9.43;;;;;;;3.90;100.00;101712.06;5018939;28;20060;-68
2022/12/07 01:25:58;;;;;;;13.43;9.40;;;;;;;3.89;100.00;101710.38;5016304;28;20053;-67
2022/12/07 01:28:25;;;;;;;14.15;9.80;;;;;;;3.87;100.00;101716.59;4990053;28;20514;-68
2022/12/07 01:31:00;;;;;;;14.82;9.43;;;;;;;3.85;100.00;101721.84;4992162;28;20057;-67
2022/12/07 01:33:28;;;;;;;11.57;8.88;;;;;;;3.86;100.00;101720.09;5016325;28;20095;-67
2022/12/07 01:36:08;;;;;;;11.37;8.43;;;;;;;3.86;100.00;101718.34;5018499;28;20061;-69
2022/12/07 01:38:35;;;;;;;15.82;9.73;;;;;;;3.78;100.00;101717.88;5010759;28;20060;-67
2022/12/07 01:41:02;;;;;;;12.63;8.95;;;;;;;3.82;100.00;101723.75;5014000;28;20099;-67
2022/12/07 01:43:33;;;;;;;15.25;9.13;;;;;;;3.82;100.00;101723.75;5010182;28;20046;-69
2022/12/07 01:46:00;;;;;;;12.68;9.32;;;;;;;3.70;100.00;101714.88;4993253;28;20053;-68
2022/12/07 01:48:39;;;;;;;14.45;8.90;;;;;;;3.73;100.00;101712.13;5021034;28;20057;-69
2022/12/07 01:51:10;;;;;;;13.95;8.88;;;;;;;3.72;100.00;101713.03;5006890;28;20049;-67
2022/12/07 01:53:43;;;;;;;12.02;8.68;;;;;;;3.70;100.00;101710.50;5025233;28;20053;-67
2022/12/07 01:56:15;;;;;;;12.70;8.32;;;;;;;3.73;100.00;101707.75;5013568;28;20049;-68
2022/12/07 01:58:42;;;;;;;13.70;9.30;;;;;;;3.68;100.00;101706.31;5019367;28;20045;-68
2022/12/07 02:01:09;;;;;;;11.60;8.38;;;;;;;3.64;100.00;101697.84;5013145;28;20057;-68
2022/12/07 02:03:41;;;;;;;12.95;8.55;;;;;;;3.67;100.00;101709.84;5019241;28;20045;-68
2022/12/07 02:06:10;;;;;;;11.70;8.77;;;;;;;3.67;100.00;101705.50;5022600;28;20189;-67
2022/12/07 02:08:37;;;;;;;12.48;8.82;;;;;;;3.63;100.00;101703.97;5013373;28;20426;-67
2022/12/07 02:11:07;;;;;;;12.27;8.18;;;;;;;3.59;100.00;101697.28;5018747;28;20049;-67
2022/12/07 02:13:36;;;;;;;13.55;7.93;;;;;;;3.58;100.00;101702.53;4995093;28;20561;-67
2022/12/07 02:16:12;;;;;;;11.48;8.00;;;;;;;3.56;100.00;101702.59;5021164;28;20052;-67
2022/12/07 02:18:55;;;;;;;10.77;7.97;;;;;;;3.49;100.00;101699.50;4991870;28;20050;-67
2022/12/07 02:21:30;;;;;;;14.00;8.27;;;;;;;3.39;100.00;101702.63;5009355;28;20061;-67
2022/12/07 02:24:12;;;;;;;18.08;8.82;;;;;;;3.33;100.00;101698.59;5024837;28;20508;-67
2022/12/07 02:27:16;;;;;;;12.38;7.90;;;;;;;3.36;100.00;101701.88;5016478;28;20334;-67
2022/12/07 02:29:58;;;;;;;12.68;8.23;;;;;;;3.33;100.00;101699.44;5002830;28;20042;-69
2022/12/07 02:32:36;;;;;;;13.05;7.50;;;;;;;3.30;100.00;101703.94;5013990;28;20099;-67
2022/12/07 02:35:28;;;;;;;12.30;7.78;;;;;;;3.29;100.00;101715.22;5018782;28;20129;-69
2022/12/07 02:38:05;;;;;;;10.18;7.97;;;;;;;3.28;100.00;101717.00;5019996;28;20127;-68
2022/12/07 02:40:43;;;;;;;13.80;8.50;;;;;;;3.24;100.00;101707.69;5016835;28;20560;-68
2022/12/07 02:43:28;;;;;;;15.50;6.82;;;;;;;3.25;100.00;101708.53;4986831;28;20052;-67
2022/12/07 02:46:06;;;;;;;13.98;7.57;;;;;;;3.24;100.00;101704.25;5010987;28;20057;-68
2022/12/07 02:48:33;;;;;;;10.25;6.65;;;;;;;3.24;100.00;101712.03;5014510;28;20084;-67
2022/12/07 02:51:00;;;;;;;12.45;7.20;;;;;;;3.16;100.00;101696.88;5024822;28;20080;-67
2022/12/07 02:53:41;;;;;;;11.18;7.75;;;;;;;3.20;100.00;101703.56;5014061;28;20049;-67
2022/12/07 02:56:34;;;;;;;9.80;7.13;;;;;;;3.16;100.00;101704.66;5023324;28;20056;-67
2022/12/07 02:59:31;;;;;;;19.58;8.38;;;;;;;3.19;100.00;101695.88;5017508;28;20049;-68
2022/12/07 03:02:07;;;;;;;9.80;6.20;;;;;;;3.12;100.00;101701.38;5018651;28;20049;-67
2022/12/07 03:05:28;;;;;;;11.60;6.78;;;;;;;3.13;100.00;101699.59;5016391;28;20053;-67
2022/12/07 03:08:03;;;;;;;12.38;6.80;;;;;;;3.10;100.00;101704.97;5021702;28;20053;-69
2022/12/07 03:10:37;;;;;;;11.88;6.82;;;;;;;3.07;100.00;101710.28;5021511;28;20448;-68
2022/12/07 03:13:18;;;;;;;12.18;6.13;;;;;;;3.07;100.00;101697.31;5024029;28;20072;-67
2022/12/07 03:15:53;;;;;;;11.02;7.15;;;;;;;3.06;100.00;101704.25;5025805;28;20533;-67
2022/12/07 03:18:26;;;;;;;12.10;6.80;;;;;;;3.09;100.00;101711.03;5012843;28;20053;-68
2022/12/07 03:20:56;;;;;;;10.50;6.50;;;;;;;3.11;100.00;101707.44;5015480;28;20081;-67
2022/12/07 03:23:25;;;;;;;15.40;7.55;;;;;;;3.07;100.00;101699.91;5014599;28;20578;-67
2022/12/07 03:25:56;;;;;;;13.60;5.78;;;;;;;3.13;100.00;101712.56;5022765;28;20069;-67
2022/12/07 03:28:31;;;;;;;11.60;6.13;;;;;;;3.12;100.00;101700.53;5016467;28;20111;-68
2022/12/07 03:31:08;;;;;;;12.38;6.22;;;;;;;3.10;100.00;101708.38;5022101;28;20057;-67
2022/12/07 03:34:01;;;;;;;9.23;5.80;;;;;;;3.12;100.00;101705.72;5018113;28;20053;-67
2022/12/07 03:36:43;;;;;;;14.85;5.50;;;;;;;3.16;100.00;101699.47;4992321;28;20516;-68
2022/12/07 03:39:21;;;;;;;9.80;4.90;;;;;;;3.23;100.00;101692.19;5024974;28;20053;-67
2022/12/07 03:41:49;;;;;;;14.27;6.00;;;;;;;3.19;100.00;101686.31;5009522;28;20058;-67
2022/12/07 03:44:16;;;;;;;10.35;5.93;;;;;;;3.21;100.00;101681.91;5010995;28;20062;-68
2022/12/07 03:46:59;;;;;;;11.80;5.13;;;;;;;3.27;100.00;101680.75;5004490;28;20520;-67
2022/12/07 03:49:45;;;;;;;8.57;5.38;;;;;;;3.28;100.00;101677.25;5021085;28;20057;-67
2022/12/07 03:52:33;;;;;;;12.40;5.28;;;;;;;3.31;100.00;101682.28;5015277;28;20065;-68
2022/12/07 03:55:22;;;;;;;8.35;5.38;;;;;;;3.29;100.00;101687.56;5024879;28;20045;-71
2022/12/07 03:57:53;;;;;;;11.52;5.57;;;;;;;3.36;100.00;101683.72;4997614;28;20049;-71
2022/12/07 04:00:19;;;;;;;9.65;5.25;;;;;;;3.33;100.00;101681.31;5013416;28;20132;-71
2022/12/07 04:02:47;;;;;;;11.23;5.07;;;;;;;3.30;100.00;101680.63;4997742;28;20088;-71
2022/12/07 04:05:13;;;;;;;11.98;4.80;;;;;;;3.30;100.00;101680.63;5022448;28;20058;-71
2022/12/07 04:07:40;;;;;;;10.20;4.90;;;;;;;3.34;100.00;101682.97;5025463;28;20137;-71
2022/12/07 04:10:07;;;;;;;12.13;5.18;;;;;;;3.32;100.00;101674.41;5014185;28;20100;-71
2022/12/07 04:12:34;;;;;;;9.60;4.55;;;;;;;3.25;100.00;101678.22;5024279;28;20461;-71
2022/12/07 04:15:00;;;;;;;9.13;4.72;;;;;;;3.27;100.00;101683.34;4989649;28;20072;-71
2022/12/07 04:17:27;;;;;;;12.80;4.97;;;;;;;3.28;100.00;101674.66;5020263;28;20057;-71
2022/12/07 04:19:53;;;;;;;8.13;4.80;;;;;;;3.29;100.00;101671.13;5013395;28;20066;-71
2022/12/07 04:22:19;;;;;;;9.43;4.80;;;;;;;3.28;100.00;101672.06;5005342;28;20144;-71
2022/12/07 04:24:46;;;;;;;9.63;4.60;;;;;;;3.30;100.00;101678.84;5020740;28;20057;-71
2022/12/07 04:27:12;;;;;;;8.57;5.03;;;;;;;3.27;100.00;101673.81;5017597;28;20077;-71
2022/12/07 04:29:39;;;;;;;8.88;4.70;;;;;;;3.28;100.00;101674.66;5009892;28;20049;-71
2022/12/07 04:32:05;;;;;;;10.68;4.50;;;;;;;3.29;100.00;101677.19;4996112;28;20544;-71
2022/12/07 04:34:32;;;;;;;10.00;4.65;;;;;;;3.24;100.00;101666.19;5012085;28;20132;-72
2022/12/07 04:36:58;;;;;;;13.23;4.88;;;;;;;3.28;100.00;101672.91;5024447;28;20057;-71
2022/12/07 04:39:28;;;;;;;10.82;4.30;;;;;;;3.34;100.00;101666.56;5013031;28;20061;-70
2022/12/07 04:41:55;;;;;;;10.57;4.72;;;;;;;3.35;100.00;101676.88;5023581;28;20326;-71
2022/12/07 04:44:22;;;;;;;12.63;5.22;;;;;;;3.36;100.00;101683.72;5004585;28;20053;-71
2022/12/07 04:46:50;;;;;;;10.95;4.97;;;;;;;3.38;100.00;101683.66;5016011;28;20107;-71
2022/12/07 04:49:18;;;;;;;10.30;5.00;;;;;;;3.36;100.00;101688.91;5004628;28;20132;-71
2022/12/07 04:51:45;;;;;;;9.97;5.03;;;;;;;3.30;100.00;101680.63;5003635;28;20061;-71
2022/12/07 04:54:12;;;;;;;11.60;4.90;;;;;;;3.31;100.00;101677.94;5006847;28;20290;-71
2022/12/07 04:56:39;;;;;;;8.73;4.83;;;;;;;3.24;100.00;101676.56;5015914;28;20056;-71
2022/12/07 04:59:06;;;;;;;9.60;4.85;;;;;;;3.21;100.00;101662.91;5022246;28;20443;-71
2022/12/07 05:01:33;;;;;;;13.50;5.03;;;;;;;3.16;100.00;101663.16;5018887;28;20520;-71
2022/12/07 05:04:00;;;;;;;7.72;4.82;;;;;;;3.22;100.00;101657.66;5023443;28;20149;-71
2022/12/07 05:06:26;;;;;;;9.18;4.72;;;;;;;3.21;100.00;101663.75;5013487;28;20049;-71
2022/12/07 05:08:53;;;;;;;9.27;4.55;;;;;;;3.20;100.00;101664.69;5021731;28;20060;-71
2022/12/07 05:11:37;;;;;;;8.02;4.90;;;;;;;3.21;100.00;101660.31;5015915;28;20081;-71
2022/12/07 05:14:11;;;;;;;10.57;4.47;;;;;;;3.22;100.00;101659.44;5004072;28;20045;-71
2022/12/07 05:16:39;;;;;;;11.50;4.55;;;;;;;3.23;100.00;101654.13;5016769;28;20052;-72
2022/12/07 05:19:06;;;;;;;10.23;5.05;;;;;;;3.23;100.00;101656.72;5016178;28;20147;-72
2022/12/07 05:21:33;;;;;;;8.50;5.00;;;;;;;3.25;100.00;101651.47;5021654;28;20056;-72
2022/12/07 05:24:00;;;;;;;8.95;5.03;;;;;;;3.23;100.00;101653.31;5011486;28;20271;-73
2022/12/07 05:26:26;;;;;;;8.65;4.50;;;;;;;3.23;100.00;101663.69;5001551;28;20057;-72
2022/12/07 05:28:55;;;;;;;6.97;4.93;;;;;;;3.23;100.00;101653.31;5017613;28;20068;-72
2022/12/07 05:31:22;;;;;;;10.73;4.55;;;;;;;3.17;100.00;101664.81;5004901;28;20444;-72
2022/12/07 05:33:49;;;;;;;8.17;4.30;;;;;;;3.10;100.00;101658.28;5021674;28;20475;-73
2022/12/07 05:36:16;;;;;;;12.68;4.60;;;;;;;3.12;100.00;101666.84;5012538;28;20065;-73
2022/12/07 05:38:42;;;;;;;8.80;4.32;;;;;;;3.04;100.00;101672.41;5013846;28;20237;-72
2022/12/07 05:42:11;;;;;;;10.23;4.65;;;;;;;3.09;100.00;101674.75;5009008;28;20037;-72
2022/12/07 05:44:00;;;;;;;8.50;4.13;;;;;;;3.04;100.00;101666.34;5024420;28;20061;-72
2022/12/07 05:46:26;;;;;;;14.18;4.63;;;;;;;3.03;100.00;101665.53;5012307;28;20057;-72
2022/12/07 05:48:53;;;;;;;11.75;5.00;;;;;;;3.05;100.00;101660.28;5017375;28;20407;-72
2022/12/07 05:51:19;;;;;;;8.32;4.55;;;;;;;3.05;100.00;101660.28;5019594;28;20168;-72
2022/12/07 05:53:46;;;;;;;8.38;4.80;;;;;;;3.05;100.00;101652.50;5008921;28;20586;-72
2022/12/07 05:56:12;;;;;;;12.82;4.75;;;;;;;3.05;100.00;101655.09;4995829;28;20049;-72
2022/12/07 06:01:23;;;;;;;8.05;3.85;;;;;;;3.02;100.00;101658.69;5016529;28;20050;-72
2022/12/07 06:03:50;;;;;;;10.45;4.75;;;;;;;3.01;100.00;101663.94;5003701;28;20107;-72
2022/12/07 06:06:16;;;;;;;9.88;4.20;;;;;;;2.96;100.00;101657.22;5011467;28;20148;-72
2022/12/07 06:08:43;;;;;;;11.50;4.70;;;;;;;2.96;100.00;101654.63;5013357;28;20160;-71
2022/12/07 06:13:54;;;;;;;11.48;4.90;;;;;;;2.97;100.00;101660.66;5011471;28;20057;-71
2022/12/07 06:16:21;;;;;;;7.15;4.32;;;;;;;2.99;100.00;101660.59;5006863;28;20073;-72
2022/12/07 06:18:47;;;;;;;10.43;4.57;;;;;;;2.95;100.00;101659.88;5022744;28;20049;-72
2022/12/07 06:21:14;;;;;;;7.20;3.92;;;;;;;2.93;100.00;101665.13;5014525;28;20278;-72
2022/12/07 06:23:41;;;;;;;6.45;3.97;;;;;;;2.96;100.00;101659.81;5016368;28;20053;-72
2022/12/07 06:26:07;;;;;;;9.25;3.85;;;;;;;2.96;100.00;101666.75;4997967;28;20203;-72
2022/12/07 06:28:34;;;;;;;12.30;4.03;;;;;;;2.92;100.00;101662.63;5011272;28;20053;-72
2022/12/07 06:31:02;;;;;;;7.20;4.28;;;;;;;2.93;100.00;101664.31;4994453;28;20053;-72
2022/12/07 06:33:29;;;;;;;11.32;3.83;;;;;;;2.90;100.00;101657.53;5006399;28;20502;-71
2022/12/07 06:35:55;;;;;;;7.80;3.78;;;;;;;2.87;100.00;101662.84;5015900;28;20233;-71
2022/12/07 06:38:22;;;;;;;8.45;4.22;;;;;;;2.87;100.00;101662.84;4999073;28;20144;-70
2022/12/07 06:40:48;;;;;;;11.93;3.83;;;;;;;2.87;100.00;101667.22;5010519;28;20505;-71
2022/12/07 06:43:15;;;;;;;7.85;3.80;;;;;;;2.91;100.00;101673.91;5026038;28;20061;-70
2022/12/07 06:45:41;;;;;;;9.63;4.80;;;;;;;2.87;100.00;101662.84;5011650;28;20064;-72
2022/12/07 06:48:08;;;;;;;10.95;4.43;;;;;;;2.86;100.00;101662.94;5019078;28;20045;-72
2022/12/07 06:50:35;;;;;;;9.23;4.10;;;;;;;2.85;100.00;101667.28;5012632;28;20122;-73
2022/12/07 06:53:01;;;;;;;11.35;3.72;;;;;;;2.87;100.00;101662.03;5019437;28;20060;-72
2022/12/07 06:55:27;;;;;;;10.90;3.90;;;;;;;2.87;100.00;101668.03;5025204;28;20081;-71
2022/12/07 06:57:54;;;;;;;7.50;3.25;;;;;;;2.88;100.00;101669.72;5011581;28;20153;-72
2022/12/07 07:00:21;;;;;;;8.15;3.38;;;;;;;2.87;100.00;101672.41;5027403;28;20116;-72
2022/12/07 07:02:48;;;;;;;9.38;3.97;;;;;;;2.81;100.00;101673.53;5024222;28;20144;-72
2022/12/07 07:05:16;;;;;;;6.10;3.50;;;;;;;2.83;100.00;101679.47;5021409;28;20050;-71
2022/12/07 07:07:43;;;;;;;13.00;5.00;;;;;;;2.80;100.00;101671.84;5015754;28;20494;-72
2022/12/07 07:10:29;;;;;;;7.53;3.88;;;;;;;2.80;100.00;101668.41;5020407;28;20053;-71
2022/12/07 07:12:56;;;;;;;8.60;4.38;;;;;;;2.82;100.00;101674.34;5010976;28;20065;-71
2022/12/07 07:15:23;;;;;;;12.73;4.05;;;;;;;2.82;100.00;101676.94;5014078;28;20081;-72
2022/12/07 07:17:49;;;;;;;10.85;3.53;;;;;;;2.82;100.00;101675.19;5018300;28;20065;-71
2022/12/07 07:20:16;;;;;;;11.05;3.88;;;;;;;2.86;100.00;101671.56;5000676;28;20465;-72
2022/12/07 07:22:42;;;;;;;8.65;4.50;;;;;;;2.85;100.00;101669.88;5010606;28;20061;-72
2022/12/07 07:25:09;;;;;;;9.98;3.47;;;;;;;2.85;100.00;101671.63;5019883;28;20071;-71
2022/12/07 07:27:35;;;;;;;9.85;3.65;;;;;;;2.79;100.00;101664.16;5027364;28;20406;-72
2022/12/07 07:30:03;;;;;;;7.75;3.15;;;;;;;2.86;100.00;101676.75;5021596;28;20053;-72
2022/12/07 07:32:30;;;;;;;8.37;3.10;;;;;;;2.83;100.00;101673.47;5009329;28;20059;-71
2022/12/07 07:34:56;;;;;;;10.13;3.05;;;;;;;2.84;100.00;101673.38;5022146;28;20136;-72
2022/12/07 07:37:23;;;;;;;7.50;3.78;;;;;;;2.82;100.00;101667.41;5022948;28;20128;-71
2022/12/07 07:39:50;;;;;;;8.57;3.10;;;;;;;2.81;100.00;101678.72;5022822;28;20081;-72
2022/12/07 07:42:16;;;;;;;6.38;2.58;;;;;;;2.78;100.00;101673.66;5017478;28;20061;-72
2022/12/07 07:44:43;;;;;;;7.40;2.80;;;;;;;2.84;100.00;101675.13;5026931;28;20056;-71
2022/12/07 07:47:09;;;;;;;12.63;3.53;;;;;;;2.80;100.00;101678.78;5020885;28;20506;-70
2022/12/07 07:49:36;;;;;;;4.45;2.20;;;;;;;2.81;100.00;101680.47;5014280;28;20549;-71
2022/12/07 07:52:03;;;;;;;6.57;2.90;;;;;;;2.79;100.00;101672.78;5021160;28;20051;-71
2022/12/07 07:54:30;;;;;;;7.75;3.03;;;;;;;2.79;100.00;101675.34;5016369;28;20058;-71
2022/12/07 07:56:56;;;;;;;7.30;2.97;;;;;;;2.79;100.00;101679.72;5026108;28;20038;-71
2022/12/07 07:59:23;;;;;;;9.02;2.70;;;;;;;2.82;100.00;101674.34;5014213;28;20097;-72
2022/12/07 08:01:49;;;;;;;11.45;3.00;;;;;;;2.80;100.00;101678.78;5015440;28;20053;-72
2022/12/07 08:04:16;;;;;;;10.60;3.47;;;;;;;2.77;100.00;101679.78;5020758;28;20053;-72
2022/12/07 08:06:43;;;;;;;4.50;2.50;;;;;;;2.77;100.00;101690.97;5020027;28;20493;-72
2022/12/07 08:09:10;;;;;;;10.68;3.25;;;;;;;2.77;100.00;101684.97;5029623;28;20052;-72
2022/12/07 08:11:37;;;;;;;4.43;2.50;;;;;;;2.77;100.00;101687.56;5003396;28;20060;-72
2022/12/07 08:14:03;;;;;;;6.22;2.42;;;;;;;2.79;100.00;101684.91;5019013;28;20537;-71
2022/12/07 08:16:30;;;;;;;6.53;2.35;;;;;;;2.79;100.00;101690.06;5015487;28;20087;-72
2022/12/07 08:18:56;;;;;;;10.07;2.53;;;;;;;2.79;100.00;101690.91;5025426;28;20045;-72
2022/12/07 08:21:22;;;;;;;6.13;2.70;;;;;;;2.83;100.00;101694.19;5024118;28;20050;-70
2022/12/07 08:23:49;;;;;;;9.23;2.53;;;;;;;2.86;100.00;101694.88;4999927;28;20058;-70
2022/12/07 08:26:16;;;;;;;10.68;2.70;;;;;;;2.91;100.00;101692.06;5019072;28;20092;-70
2022/12/07 08:28:44;;;;;;;10.45;2.67;;;;;;;2.93;100.00;101688.47;5015311;28;20053;-70
2022/12/07 08:31:14;;;;;;;7.82;2.65;;;;;;;3.04;100.00;101695.72;5013292;28;20103;-70
2022/12/07 08:33:41;;;;;;;6.95;2.80;;;;;;;3.08;100.00;101693.81;5015338;28;20056;-70
2022/12/07 08:36:11;;;;;;;9.60;3.05;;;;;;;3.13;100.00;101700.44;5011798;28;20057;-71
2022/12/07 08:38:39;;;;;;;10.70;3.00;;;;;;;3.18;100.00;101708.00;5023363;28;20049;-70
2022/12/07 08:41:06;;;;;;;9.52;2.83;;;;;;;3.22;100.00;101711.28;5008454;28;20045;-70
2022/12/07 08:43:34;;;;;;;8.38;2.70;;;;;;;3.32;100.00;101721.09;5015159;28;20053;-70
2022/12/07 08:46:06;;;;;;;12.75;3.05;;;;;;;3.35;100.00;101709.72;5018102;28;20045;-70
2022/12/07 08:48:37;;;;;;;7.25;2.58;;;;;;;3.46;100.00;101706.59;5020899;28;20053;-69
2022/12/07 08:51:04;;;;;;;7.10;2.78;;;;;;;3.48;100.00;101704.75;5014145;28;20042;-70
2022/12/07 08:53:34;;;;;;;8.75;2.60;;;;;;;3.48;100.00;101708.19;5010583;28;20137;-70
2022/12/07 08:56:00;;;;;;;8.45;2.80;;;;;;;3.47;100.00;101695.28;5012338;28;20045;-69
2022/12/07 08:58:27;;;;;;;10.77;2.95;;;;;;;3.48;100.00;101699.56;4999371;28;20124;-70
2022/12/07 09:00:54;;;;;;;14.15;3.25;;;;;;;3.48;100.00;101694.38;5024116;28;20050;-70
2022/12/07 09:03:20;;;;;;;13.18;3.38;;;;;;;3.47;100.00;101690.09;5020919;28;20045;-71
2022/12/07 09:05:47;;;;;;;10.07;3.42;;;;;;;3.43;100.00;101688.59;5021614;28;20448;-71
2022/12/07 09:08:14;;;;;;;5.32;3.28;;;;;;;3.48;100.00;101703.00;5021744;28;20107;-71
2022/12/07 09:10:40;;;;;;;8.35;3.65;;;;;;;3.41;100.00;101698.19;5019405;28;20049;-71
2022/12/07 09:13:07;;;;;;;8.70;2.95;;;;;;;3.47;100.00;101698.75;5024460;28;20057;-71
2022/12/07 09:15:33;;;;;;;11.70;3.90;;;;;;;3.49;100.00;101696.03;5011009;28;20055;-71
2022/12/07 09:18:00;;;;;;;10.25;2.75;;;;;;;3.52;100.00;101695.91;5024872;28;20061;-71
2022/12/07 09:20:26;;;;;;;8.48;2.88;;;;;;;3.58;100.00;101700.78;5022158;28;20063;-71
2022/12/07 09:22:53;;;;;;;8.15;2.65;;;;;;;3.63;100.00;101693.59;5024819;28;20496;-71
2022/12/07 09:25:20;;;;;;;11.50;2.35;;;;;;;3.69;100.00;101702.81;5013862;28;20132;-71
2022/12/07 09:27:47;;;;;;;6.43;2.22;;;;;;;3.71;100.00;101706.16;5025058;28;20053;-72
2022/12/07 09:30:13;;;;;;;8.85;2.80;;;;;;;3.76;100.00;101705.03;5024905;28;20145;-71
2022/12/07 09:32:40;;;;;;;5.55;2.10;;;;;;;3.72;100.00;101694.84;5004695;28;20100;-72
2022/12/07 09:35:06;;;;;;;10.32;2.47;;;;;;;3.74;100.00;101695.63;5017834;28;20535;-71
2022/12/07 09:37:35;;;;;;;8.48;2.83;;;;;;;3.72;100.00;101698.31;5022286;28;20077;-72
2022/12/07 09:40:03;;;;;;;9.20;2.10;;;;;;;3.70;100.00;101696.69;5001835;28;20064;-71
2022/12/07 09:42:44;;;;;;;7.82;2.35;;;;;;;3.71;100.00;101694.03;5014461;28;20053;-74
2022/12/07 09:45:24;;;;;;;8.07;2.20;;;;;;;3.76;100.00;101696.38;5013597;28;20065;-71
2022/12/07 09:47:51;;;;;;;11.48;2.58;;;;;;;3.73;100.00;101694.78;5025115;28;20078;-71
2022/12/07 09:50:24;;;;;;;10.75;2.83;;;;;;;3.86;100.00;101697.59;5027305;28;20379;-71
2022/12/07 09:52:53;;;;;;;8.88;2.70;;;;;;;3.87;100.00;101695.81;5022346;28;20441;-71
2022/12/07 09:55:28;;;;;;;6.68;2.92;;;;;;;3.92;100.00;101693.78;5037163;28;20029;-72
2022/12/07 09:57:56;;;;;;;7.60;2.90;;;;;;;3.91;100.00;101692.97;5031042;28;20053;-70
2022/12/07 10:00:23;;;;;;;6.65;2.58;;;;;;;3.97;100.00;101697.00;5026412;28;20084;-71
2022/12/07 10:02:56;;;;;;;11.05;3.30;;;;;;;3.97;100.00;101681.44;5027372;28;20045;-72
2022/12/07 10:05:28;;;;;;;12.30;3.47;;;;;;;3.97;100.00;101686.63;5017460;28;20053;-71
2022/12/07 10:07:55;;;;;;;8.10;2.95;;;;;;;3.96;100.00;101682.34;5022811;28;20490;-70
2022/12/07 10:10:29;;;;;;;6.65;2.72;;;;;;;4.03;100.00;101683.69;5019712;28;20140;-72
2022/12/07 10:13:09;;;;;;;7.30;2.67;;;;;;;4.08;100.00;101683.47;5005987;28;20045;-71
2022/12/07 10:15:45;;;;;;;8.07;2.42;;;;;;;4.09;100.00;101677.31;5026735;28;20045;-71
2022/12/07 10:18:31;;;;;;;6.03;2.40;;;;;;;4.17;100.00;101675.16;5021279;28;20486;-71
2022/12/07 10:21:23;;;;;;;12.30;2.60;;;;;;;4.24;100.00;101673.91;5017820;28;20049;-72
2022/12/07 10:24:03;;;;;;;10.55;2.47;;;;;;;4.30;100.00;101673.56;4995907;28;20045;-71
2022/12/07 10:26:33;;;;;;;10.88;2.58;;;;;;;4.29;100.00;101666.69;5016152;28;20053;-71
2022/12/07 10:29:28;;;;;;;9.10;2.80;;;;;;;4.36;100.00;101664.59;5021902;28;20327;-71
2022/12/07 10:32:22;;;;;;;7.30;2.70;;;;;;;4.41;100.00;101664.31;5016683;28;20056;-71
2022/12/07 10:34:49;;;;;;;8.82;2.60;;;;;;;4.43;100.00;101654.69;5014361;28;20042;-71
2022/12/07 10:37:19;;;;;;;;;;;;;;;4.53;100.00;101653.25;5012112;28;20050;-71
2022/12/07 10:39:50;;;;;;;6.82;2.33;;;;;;;4.49;100.00;101652.59;5016990;28;19983;-71
2022/12/07 10:42:25;;;;;;;4.75;2.20;;;;;;;4.56;100.00;101653.91;5013761;28;20056;-71
2022/12/07 10:45:09;;;;;;;6.35;2.15;;;;;;;4.66;100.00;101645.59;5001929;28;20104;-71
2022/12/07 10:47:51;;;;;;;8.48;2.50;;;;;;;4.73;100.00;101644.31;5010989;28;20092;-71
2022/12/07 10:50:37;;;;;;;6.05;2.55;;;;;;;4.81;100.00;101638.69;5015720;28;20049;-71
2022/12/07 10:53:15;;;;;;;9.27;2.67;;;;;;;4.83;100.00;101640.25;5002661;28;20481;-71
2022/12/07 10:55:54;;;;;;;11.07;2.45;;;;;;;4.96;100.00;101640.38;5017674;28;20418;-71
2022/12/07 10:58:36;;;;;;;13.00;2.67;;;;;;;5.07;100.00;101640.56;5015104;28;20049;-70
2022/12/07 11:01:08;;;;;;;6.90;2.47;;;;;;;5.17;100.00;101635.66;5020653;28;20050;-71
2022/12/07 11:03:50;;;;;;;5.13;2.35;;;;;;;5.28;100.00;101625.47;5011655;28;20072;-70
2022/12/07 11:06:48;;;;;;;5.95;2.20;;;;;;;5.37;100.00;101626.69;5012428;28;20096;-71
2022/12/07 11:09:34;;;;;;;9.88;2.15;;;;;;;5.41;100.00;101625.56;5016937;28;20054;-71
2022/12/07 11:13:02;;;;;;;5.00;1.90;;;;;;;5.49;100.00;101622.50;5012062;28;20045;-71
2022/12/07 11:15:57;;;;;;;9.95;1.98;;;;;;;5.52;100.00;101620.53;4999745;28;20061;-72
2022/12/07 11:18:34;;;;;;;10.15;1.92;;;;;;;5.49;100.00;101619.91;5016027;28;20049;-72
2022/12/07 11:21:13;;;;;;;7.28;1.58;;;;;;;5.53;100.00;101624.00;5016402;28;20437;-73
2022/12/07 11:24:09;;;;;;;3.67;1.70;;;;;;;5.55;100.00;101622.13;5027016;28;20513;-72
2022/12/07 11:26:57;;;;;;;7.38;2.00;;;;;;;5.59;100.00;101612.38;5008665;28;20053;-71
2022/12/07 11:29:51;;;;;;;9.85;2.97;;;;;;;5.59;100.00;101604.56;5023823;28;20084;-71
2022/12/07 11:32:20;;;;;;;8.80;2.80;;;;;;;5.58;100.00;101608.91;5010687;28;20053;-70
2022/12/07 11:35:06;;;;;;;9.88;2.10;;;;;;;5.61;100.00;101597.50;5007451;28;20141;-72
2022/12/07 11:37:36;;;;;;;9.18;2.95;;;;;;;5.57;100.00;101602.03;4996795;28;20457;-71
2022/12/07 11:40:17;;;;;;;6.95;2.22;;;;;;;5.62;100.00;101602.56;5019008;28;20056;-71
2022/12/07 11:43:19;;;;;;;11.10;2.17;;;;;;;5.67;100.00;101599.72;5017122;28;20051;-72
2022/12/07 11:45:54;;;;;;;8.00;1.95;;;;;;;5.71;100.00;101586.41;4990111;28;20050;-71
2022/12/07 11:48:30;;;;;;;5.95;2.28;;;;;;;5.72;100.00;101595.88;5025364;28;20559;-72